sensor_id;sensor_type;location;lat;lon;timestamp;temperature;humidity
21335;DHT22;10826;52.536;13.432;2022-10-16T00:01:27;19.60;57.80
21335;DHT22;10826;52.536;13.432;2022-10-16T00:03:56;19.60;57.80
21335;DHT22;10826;52.536;13.432;2022-10-16T00:06:24;19.60;57.80
21335;DHT22;10826;52.536;13.432;2022-10-16T00:08:51;19.60;57.80
21335;DHT22;10826;52.536;13.432;2022-10-16T00:11:27;19.70;57.90
21335;DHT22;10826;52.536;13.432;2022-10-16T00:14:04;19.70;57.80
21335;DHT22;10826;52.536;13.432;2022-10-16T00:16:34;19.70;57.80
21335;DHT22;10826;52.536;13.432;2022-10-16T00:19:00;19.70;57.80
21335;DHT22;10826;52.536;13.432;2022-10-16T00:21:28;19.70;57.90
21335;DHT22;10826;52.536;13.432;2022-10-16T00:23:57;19.70;57.80
21335;DHT22;10826;52.536;13.432;2022-10-16T00:26:26;19.80;57.80
21335;DHT22;10826;52.536;13.432;2022-10-16T00:28:52;19.80;57.80
21335;DHT22;10826;52.536;13.432;2022-10-16T00:31:20;19.80;57.70
21335;DHT22;10826;52.536;13.432;2022-10-16T00:33:49;19.80;57.80
21335;DHT22;10826;52.536;13.432;2022-10-16T00:36:18;19.90;57.80
21335;DHT22;10826;52.536;13.432;2022-10-16T00:38:46;19.90;57.70
21335;DHT22;10826;52.536;13.432;2022-10-16T00:41:14;19.90;57.70
21335;DHT22;10826;52.536;13.432;2022-10-16T00:43:46;19.90;57.60
21335;DHT22;10826;52.536;13.432;2022-10-16T00:51:39;19.90;57.70
21335;DHT22;10826;52.536;13.432;2022-10-16T00:54:11;19.90;58.40
21335;DHT22;10826;52.536;13.432;2022-10-16T00:56:41;19.90;57.70
21335;DHT22;10826;52.536;13.432;2022-10-16T00:59:15;19.90;57.80
21335;DHT22;10826;52.536;13.432;2022-10-16T01:01:46;19.90;57.70
21335;DHT22;10826;52.536;13.432;2022-10-16T01:04:12;19.90;57.90
21335;DHT22;10826;52.536;13.432;2022-10-16T01:06:59;19.90;58.00
21335;DHT22;10826;52.536;13.432;2022-10-16T01:10:03;19.90;57.90
21335;DHT22;10826;52.536;13.432;2022-10-16T01:12:44;19.90;57.80
21335;DHT22;10826;52.536;13.432;2022-10-16T01:15:26;19.80;58.00
21335;DHT22;10826;52.536;13.432;2022-10-16T01:18:14;19.80;58.00
21335;DHT22;10826;52.536;13.432;2022-10-16T01:21:10;19.80;58.00
21335;DHT22;10826;52.536;13.432;2022-10-16T01:23:59;19.80;58.10
21335;DHT22;10826;52.536;13.432;2022-10-16T01:27:07;19.80;58.00
21335;DHT22;10826;52.536;13.432;2022-10-16T01:32:32;19.90;58.10
21335;DHT22;10826;52.536;13.432;2022-10-16T01:38:10;19.80;58.20
21335;DHT22;10826;52.536;13.432;2022-10-16T01:40:47;19.80;58.30
21335;DHT22;10826;52.536;13.432;2022-10-16T01:43:31;19.80;58.40
21335;DHT22;10826;52.536;13.432;2022-10-16T01:46:01;19.80;58.40
21335;DHT22;10826;52.536;13.432;2022-10-16T01:48:29;19.80;58.40
21335;DHT22;10826;52.536;13.432;2022-10-16T01:51:07;19.80;58.40
21335;DHT22;10826;52.536;13.432;2022-10-16T01:53:39;19.80;58.40
21335;DHT22;10826;52.536;13.432;2022-10-16T01:56:09;19.80;58.50
21335;DHT22;10826;52.536;13.432;2022-10-16T01:58:46;19.80;58.40
21335;DHT22;10826;52.536;13.432;2022-10-16T02:01:19;19.80;58.30
21335;DHT22;10826;52.536;13.432;2022-10-16T02:03:51;19.80;58.40
21335;DHT22;10826;52.536;13.432;2022-10-16T02:06:21;19.80;58.40
21335;DHT22;10826;52.536;13.432;2022-10-16T02:08:48;19.80;58.30
21335;DHT22;10826;52.536;13.432;2022-10-16T02:11:14;19.90;58.40
21335;DHT22;10826;52.536;13.432;2022-10-16T02:13:45;19.90;58.20
21335;DHT22;10826;52.536;13.432;2022-10-16T02:16:14;20.00;58.00
21335;DHT22;10826;52.536;13.432;2022-10-16T02:18:41;20.00;58.00
21335;DHT22;10826;52.536;13.432;2022-10-16T02:21:26;20.00;57.80
21335;DHT22;10826;52.536;13.432;2022-10-16T02:23:58;20.10;57.70
21335;DHT22;10826;52.536;13.432;2022-10-16T02:26:40;20.10;57.80
21335;DHT22;10826;52.536;13.432;2022-10-16T02:29:17;20.10;57.60
21335;DHT22;10826;52.536;13.432;2022-10-16T02:31:52;20.10;57.60
21335;DHT22;10826;52.536;13.432;2022-10-16T02:34:24;20.10;57.50
21335;DHT22;10826;52.536;13.432;2022-10-16T02:36:53;20.20;57.50
21335;DHT22;10826;52.536;13.432;2022-10-16T02:39:20;20.20;57.40
21335;DHT22;10826;52.536;13.432;2022-10-16T02:41:47;20.20;57.30
21335;DHT22;10826;52.536;13.432;2022-10-16T02:44:13;20.20;57.30
21335;DHT22;10826;52.536;13.432;2022-10-16T02:46:39;20.20;57.20
21335;DHT22;10826;52.536;13.432;2022-10-16T02:49:05;20.20;57.10
21335;DHT22;10826;52.536;13.432;2022-10-16T02:51:31;20.20;57.10
21335;DHT22;10826;52.536;13.432;2022-10-16T02:53:57;20.20;57.10
21335;DHT22;10826;52.536;13.432;2022-10-16T02:56:23;20.20;57.10
21335;DHT22;10826;52.536;13.432;2022-10-16T02:58:49;20.20;57.20
21335;DHT22;10826;52.536;13.432;2022-10-16T03:01:15;20.20;57.20
21335;DHT22;10826;52.536;13.432;2022-10-16T03:03:42;20.20;57.20
21335;DHT22;10826;52.536;13.432;2022-10-16T03:06:08;20.20;57.20
21335;DHT22;10826;52.536;13.432;2022-10-16T03:08:34;20.20;57.10
21335;DHT22;10826;52.536;13.432;2022-10-16T03:11:00;20.20;57.00
21335;DHT22;10826;52.536;13.432;2022-10-16T03:13:26;20.20;57.10
21335;DHT22;10826;52.536;13.432;2022-10-16T03:15:52;20.20;57.00
21335;DHT22;10826;52.536;13.432;2022-10-16T03:18:17;20.10;57.00
21335;DHT22;10826;52.536;13.432;2022-10-16T03:20:43;20.10;57.10
21335;DHT22;10826;52.536;13.432;2022-10-16T03:23:09;20.10;57.10
21335;DHT22;10826;52.536;13.432;2022-10-16T03:25:36;20.10;57.20
21335;DHT22;10826;52.536;13.432;2022-10-16T03:28:01;20.00;57.20
21335;DHT22;10826;52.536;13.432;2022-10-16T03:30:29;20.00;57.30
21335;DHT22;10826;52.536;13.432;2022-10-16T03:32:54;20.00;57.40
21335;DHT22;10826;52.536;13.432;2022-10-16T03:35:21;20.00;57.40
21335;DHT22;10826;52.536;13.432;2022-10-16T03:37:49;19.90;57.50
21335;DHT22;10826;52.536;13.432;2022-10-16T03:40:16;19.90;57.50
21335;DHT22;10826;52.536;13.432;2022-10-16T03:42:42;19.90;57.70
21335;DHT22;10826;52.536;13.432;2022-10-16T03:45:10;19.80;57.60
21335;DHT22;10826;52.536;13.432;2022-10-16T03:47:36;19.80;57.70
21335;DHT22;10826;52.536;13.432;2022-10-16T03:50:04;19.80;57.80
21335;DHT22;10826;52.536;13.432;2022-10-16T03:52:30;19.80;57.90
21335;DHT22;10826;52.536;13.432;2022-10-16T03:54:57;19.70;58.00
21335;DHT22;10826;52.536;13.432;2022-10-16T03:57:23;19.70;58.10
21335;DHT22;10826;52.536;13.432;2022-10-16T03:59:49;19.70;58.10
21335;DHT22;10826;52.536;13.432;2022-10-16T04:02:15;19.70;58.90
21335;DHT22;10826;52.536;13.432;2022-10-16T04:04:41;19.60;58.20
21335;DHT22;10826;52.536;13.432;2022-10-16T04:07:07;19.60;58.30
21335;DHT22;10826;52.536;13.432;2022-10-16T04:09:33;19.60;58.30
21335;DHT22;10826;52.536;13.432;2022-10-16T04:11:59;19.70;58.50
21335;DHT22;10826;52.536;13.432;2022-10-16T04:14:25;19.60;58.40
21335;DHT22;10826;52.536;13.432;2022-10-16T04:16:50;19.50;58.60
21335;DHT22;10826;52.536;13.432;2022-10-16T04:19:16;19.60;59.30
21335;DHT22;10826;52.536;13.432;2022-10-16T04:21:42;19.50;58.60
21335;DHT22;10826;52.536;13.432;2022-10-16T04:24:08;19.50;58.70
21335;DHT22;10826;52.536;13.432;2022-10-16T04:26:34;19.50;58.70
21335;DHT22;10826;52.536;13.432;2022-10-16T04:29:00;19.50;58.80
21335;DHT22;10826;52.536;13.432;2022-10-16T04:31:26;19.50;58.80
21335;DHT22;10826;52.536;13.432;2022-10-16T04:33:52;19.50;58.80
21335;DHT22;10826;52.536;13.432;2022-10-16T04:36:18;19.50;58.80
21335;DHT22;10826;52.536;13.432;2022-10-16T04:38:44;19.50;58.90
21335;DHT22;10826;52.536;13.432;2022-10-16T04:41:09;19.50;58.90
21335;DHT22;10826;52.536;13.432;2022-10-16T04:43:35;19.50;59.00
21335;DHT22;10826;52.536;13.432;2022-10-16T04:46:01;19.50;59.00
21335;DHT22;10826;52.536;13.432;2022-10-16T04:48:27;19.40;58.90
21335;DHT22;10826;52.536;13.432;2022-10-16T04:50:53;19.40;58.90
21335;DHT22;10826;52.536;13.432;2022-10-16T04:53:19;19.40;58.90
21335;DHT22;10826;52.536;13.432;2022-10-16T04:55:44;19.40;58.90
21335;DHT22;10826;52.536;13.432;2022-10-16T04:58:11;19.40;58.90
21335;DHT22;10826;52.536;13.432;2022-10-16T05:00:36;19.40;59.00
21335;DHT22;10826;52.536;13.432;2022-10-16T05:03:04;19.30;59.10
21335;DHT22;10826;52.536;13.432;2022-10-16T05:05:33;19.30;59.10
21335;DHT22;10826;52.536;13.432;2022-10-16T05:07:59;19.30;59.10
21335;DHT22;10826;52.536;13.432;2022-10-16T05:10:25;19.30;59.10
21335;DHT22;10826;52.536;13.432;2022-10-16T05:12:50;19.30;59.10
21335;DHT22;10826;52.536;13.432;2022-10-16T05:15:17;19.30;59.20
21335;DHT22;10826;52.536;13.432;2022-10-16T05:17:44;19.20;59.10
21335;DHT22;10826;52.536;13.432;2022-10-16T05:20:11;19.20;59.30
21335;DHT22;10826;52.536;13.432;2022-10-16T05:22:37;19.20;59.30
21335;DHT22;10826;52.536;13.432;2022-10-16T05:25:04;19.20;59.30
21335;DHT22;10826;52.536;13.432;2022-10-16T05:27:30;19.20;59.40
21335;DHT22;10826;52.536;13.432;2022-10-16T05:29:56;19.10;59.40
21335;DHT22;10826;52.536;13.432;2022-10-16T05:32:22;19.20;59.50
21335;DHT22;10826;52.536;13.432;2022-10-16T05:34:48;19.20;59.50
21335;DHT22;10826;52.536;13.432;2022-10-16T05:37:13;19.20;59.50
21335;DHT22;10826;52.536;13.432;2022-10-16T05:39:39;19.20;59.50
21335;DHT22;10826;52.536;13.432;2022-10-16T05:42:06;19.10;59.50
21335;DHT22;10826;52.536;13.432;2022-10-16T05:44:32;19.20;59.40
21335;DHT22;10826;52.536;13.432;2022-10-16T05:46:58;19.20;59.50
21335;DHT22;10826;52.536;13.432;2022-10-16T05:49:24;19.20;59.50
21335;DHT22;10826;52.536;13.432;2022-10-16T05:51:50;19.20;59.40
21335;DHT22;10826;52.536;13.432;2022-10-16T05:54:16;19.20;59.40
21335;DHT22;10826;52.536;13.432;2022-10-16T05:56:42;19.20;59.40
21335;DHT22;10826;52.536;13.432;2022-10-16T05:59:08;19.20;59.30
21335;DHT22;10826;52.536;13.432;2022-10-16T06:01:34;19.20;59.30
21335;DHT22;10826;52.536;13.432;2022-10-16T06:04:01;19.30;59.30
21335;DHT22;10826;52.536;13.432;2022-10-16T06:06:28;19.30;59.20
21335;DHT22;10826;52.536;13.432;2022-10-16T06:08:56;19.30;59.20
21335;DHT22;10826;52.536;13.432;2022-10-16T06:11:29;19.30;59.10
21335;DHT22;10826;52.536;13.432;2022-10-16T06:13:58;19.30;59.10
21335;DHT22;10826;52.536;13.432;2022-10-16T06:16:27;19.30;59.10
21335;DHT22;10826;52.536;13.432;2022-10-16T06:18:55;19.30;59.10
21335;DHT22;10826;52.536;13.432;2022-10-16T06:21:23;19.40;59.10
21335;DHT22;10826;52.536;13.432;2022-10-16T06:23:50;19.40;59.00
21335;DHT22;10826;52.536;13.432;2022-10-16T06:26:19;19.40;58.90
21335;DHT22;10826;52.536;13.432;2022-10-16T06:28:47;19.40;58.80
21335;DHT22;10826;52.536;13.432;2022-10-16T06:31:13;19.40;58.70
21335;DHT22;10826;52.536;13.432;2022-10-16T06:33:40;19.50;58.80
21335;DHT22;10826;52.536;13.432;2022-10-16T06:36:12;19.50;58.70
21335;DHT22;10826;52.536;13.432;2022-10-16T06:38:40;19.50;58.60
21335;DHT22;10826;52.536;13.432;2022-10-16T06:41:07;19.50;58.50
21335;DHT22;10826;52.536;13.432;2022-10-16T06:43:35;19.60;58.50
21335;DHT22;10826;52.536;13.432;2022-10-16T06:46:02;19.60;58.40
21335;DHT22;10826;52.536;13.432;2022-10-16T06:48:29;19.60;58.40
21335;DHT22;10826;52.536;13.432;2022-10-16T06:53:39;19.70;58.40
21335;DHT22;10826;52.536;13.432;2022-10-16T06:58:45;19.70;58.20
21335;DHT22;10826;52.536;13.432;2022-10-16T07:01:13;19.70;58.20
21335;DHT22;10826;52.536;13.432;2022-10-16T07:03:41;19.80;58.20
21335;DHT22;10826;52.536;13.432;2022-10-16T07:06:10;19.80;58.10
21335;DHT22;10826;52.536;13.432;2022-10-16T07:08:40;19.80;58.00
21335;DHT22;10826;52.536;13.432;2022-10-16T07:11:13;19.90;58.00
21335;DHT22;10826;52.536;13.432;2022-10-16T07:13:42;20.00;57.90
21335;DHT22;10826;52.536;13.432;2022-10-16T07:16:11;20.10;57.90
21335;DHT22;10826;52.536;13.432;2022-10-16T07:18:39;20.20;57.80
21335;DHT22;10826;52.536;13.432;2022-10-16T07:23:35;20.30;57.30
21335;DHT22;10826;52.536;13.432;2022-10-16T07:26:02;20.50;57.10
21335;DHT22;10826;52.536;13.432;2022-10-16T07:28:30;20.60;56.80
21335;DHT22;10826;52.536;13.432;2022-10-16T07:31:09;20.70;56.70
21335;DHT22;10826;52.536;13.432;2022-10-16T07:33:38;20.80;57.10
21335;DHT22;10826;52.536;13.432;2022-10-16T07:36:05;20.80;57.00
21335;DHT22;10826;52.536;13.432;2022-10-16T07:38:31;20.90;56.10
21335;DHT22;10826;52.536;13.432;2022-10-16T07:40:59;21.00;55.90
21335;DHT22;10826;52.536;13.432;2022-10-16T07:43:26;21.00;55.70
21335;DHT22;10826;52.536;13.432;2022-10-16T07:45:53;21.10;55.60
21335;DHT22;10826;52.536;13.432;2022-10-16T07:48:22;21.10;55.50
21335;DHT22;10826;52.536;13.432;2022-10-16T07:50:49;21.20;55.30
21335;DHT22;10826;52.536;13.432;2022-10-16T07:53:15;21.20;55.20
21335;DHT22;10826;52.536;13.432;2022-10-16T07:55:41;21.30;55.10
21335;DHT22;10826;52.536;13.432;2022-10-16T07:58:08;21.30;55.00
21335;DHT22;10826;52.536;13.432;2022-10-16T08:00:36;21.40;54.90
21335;DHT22;10826;52.536;13.432;2022-10-16T08:03:03;21.40;54.60
21335;DHT22;10826;52.536;13.432;2022-10-16T08:05:31;21.40;54.50
21335;DHT22;10826;52.536;13.432;2022-10-16T08:07:58;21.40;54.60
21335;DHT22;10826;52.536;13.432;2022-10-16T08:10:26;21.40;54.70
21335;DHT22;10826;52.536;13.432;2022-10-16T08:12:54;21.40;54.70
21335;DHT22;10826;52.536;13.432;2022-10-16T08:15:20;21.40;54.70
21335;DHT22;10826;52.536;13.432;2022-10-16T08:18:03;21.40;54.70
21335;DHT22;10826;52.536;13.432;2022-10-16T08:20:32;21.40;54.60
21335;DHT22;10826;52.536;13.432;2022-10-16T08:22:59;21.50;54.70
21335;DHT22;10826;52.536;13.432;2022-10-16T08:25:27;21.50;54.60
21335;DHT22;10826;52.536;13.432;2022-10-16T08:27:54;21.60;54.50
21335;DHT22;10826;52.536;13.432;2022-10-16T08:30:23;21.60;54.30
21335;DHT22;10826;52.536;13.432;2022-10-16T08:32:49;21.70;54.30
21335;DHT22;10826;52.536;13.432;2022-10-16T08:35:16;21.70;54.20
21335;DHT22;10826;52.536;13.432;2022-10-16T08:37:42;21.70;54.10
21335;DHT22;10826;52.536;13.432;2022-10-16T08:40:24;21.80;54.00
21335;DHT22;10826;52.536;13.432;2022-10-16T08:48:58;21.80;53.80
21335;DHT22;10826;52.536;13.432;2022-10-16T08:51:33;21.80;53.90
21335;DHT22;10826;52.536;13.432;2022-10-16T08:54:36;21.80;53.70
21335;DHT22;10826;52.536;13.432;2022-10-16T08:57:11;21.90;53.70
21335;DHT22;10826;52.536;13.432;2022-10-16T08:59:39;21.90;53.60
21335;DHT22;10826;52.536;13.432;2022-10-16T09:02:31;21.90;53.50
21335;DHT22;10826;52.536;13.432;2022-10-16T09:14:23;22.00;53.20
21335;DHT22;10826;52.536;13.432;2022-10-16T09:17:32;22.00;53.20
21335;DHT22;10826;52.536;13.432;2022-10-16T09:20:19;22.10;53.00
21335;DHT22;10826;52.536;13.432;2022-10-16T09:22:46;22.20;52.90
21335;DHT22;10826;52.536;13.432;2022-10-16T09:25:19;22.20;52.60
21335;DHT22;10826;52.536;13.432;2022-10-16T09:27:48;22.30;52.40
21335;DHT22;10826;52.536;13.432;2022-10-16T09:30:20;22.30;52.30
21335;DHT22;10826;52.536;13.432;2022-10-16T09:32:52;22.30;52.20
21335;DHT22;10826;52.536;13.432;2022-10-16T09:35:31;22.40;52.20
21335;DHT22;10826;52.536;13.432;2022-10-16T09:38:00;22.40;51.80
21335;DHT22;10826;52.536;13.432;2022-10-16T09:40:38;22.40;51.90
21335;DHT22;10826;52.536;13.432;2022-10-16T09:43:25;22.40;51.80
21335;DHT22;10826;52.536;13.432;2022-10-16T09:46:04;22.40;51.80
21335;DHT22;10826;52.536;13.432;2022-10-16T09:48:43;22.40;51.90
21335;DHT22;10826;52.536;13.432;2022-10-16T09:51:35;22.40;51.90
21335;DHT22;10826;52.536;13.432;2022-10-16T09:54:18;22.40;51.80
21335;DHT22;10826;52.536;13.432;2022-10-16T09:56:45;22.30;51.90
21335;DHT22;10826;52.536;13.432;2022-10-16T09:59:17;22.30;51.90
21335;DHT22;10826;52.536;13.432;2022-10-16T10:01:47;22.30;51.90
21335;DHT22;10826;52.536;13.432;2022-10-16T10:04:17;22.20;51.80
21335;DHT22;10826;52.536;13.432;2022-10-16T10:06:46;22.20;52.00
21335;DHT22;10826;52.536;13.432;2022-10-16T10:09:32;22.30;52.00
21335;DHT22;10826;52.536;13.432;2022-10-16T10:12:14;22.30;51.90
21335;DHT22;10826;52.536;13.432;2022-10-16T10:14:53;22.40;51.70
21335;DHT22;10826;52.536;13.432;2022-10-16T10:17:23;22.40;51.50
21335;DHT22;10826;52.536;13.432;2022-10-16T10:19:57;22.40;51.20
21335;DHT22;10826;52.536;13.432;2022-10-16T10:22:42;22.50;51.10
21335;DHT22;10826;52.536;13.432;2022-10-16T10:28:08;22.60;50.70
21335;DHT22;10826;52.536;13.432;2022-10-16T10:30:54;22.70;50.20
21335;DHT22;10826;52.536;13.432;2022-10-16T10:36:35;22.70;50.10
21335;DHT22;10826;52.536;13.432;2022-10-16T10:39:17;22.60;49.90
21335;DHT22;10826;52.536;13.432;2022-10-16T10:47:40;22.60;49.60
21335;DHT22;10826;52.536;13.432;2022-10-16T10:59:43;22.90;48.50
21335;DHT22;10826;52.536;13.432;2022-10-16T11:08:18;23.10;48.00
21335;DHT22;10826;52.536;13.432;2022-10-16T11:10:57;23.20;47.50
21335;DHT22;10826;52.536;13.432;2022-10-16T11:13:36;23.30;47.40
21335;DHT22;10826;52.536;13.432;2022-10-16T11:16:28;23.40;46.90
21335;DHT22;10826;52.536;13.432;2022-10-16T11:19:14;23.50;46.50
21335;DHT22;10826;52.536;13.432;2022-10-16T11:22:29;23.60;46.10
21335;DHT22;10826;52.536;13.432;2022-10-16T11:25:22;23.60;46.10
21335;DHT22;10826;52.536;13.432;2022-10-16T11:31:02;23.70;45.50
21335;DHT22;10826;52.536;13.432;2022-10-16T11:37:13;23.60;45.00
21335;DHT22;10826;52.536;13.432;2022-10-16T11:39:43;23.60;44.90
21335;DHT22;10826;52.536;13.432;2022-10-16T11:42:25;23.60;44.90
21335;DHT22;10826;52.536;13.432;2022-10-16T11:48:00;23.40;44.50
21335;DHT22;10826;52.536;13.432;2022-10-16T11:50:53;23.30;44.60
21335;DHT22;10826;52.536;13.432;2022-10-16T11:53:35;23.20;44.60
21335;DHT22;10826;52.536;13.432;2022-10-16T11:56:16;23.10;44.60
21335;DHT22;10826;52.536;13.432;2022-10-16T11:59:01;23.00;44.40
21335;DHT22;10826;52.536;13.432;2022-10-16T12:01:37;22.90;44.70
21335;DHT22;10826;52.536;13.432;2022-10-16T12:07:18;22.70;44.40
21335;DHT22;10826;52.536;13.432;2022-10-16T12:09:49;22.60;44.30
21335;DHT22;10826;52.536;13.432;2022-10-16T12:17:47;22.50;43.80
21335;DHT22;10826;52.536;13.432;2022-10-16T12:20:20;22.40;43.60
21335;DHT22;10826;52.536;13.432;2022-10-16T12:23:05;22.40;43.60
21335;DHT22;10826;52.536;13.432;2022-10-16T12:25:33;22.40;43.50
21335;DHT22;10826;52.536;13.432;2022-10-16T12:30:41;22.40;43.40
21335;DHT22;10826;52.536;13.432;2022-10-16T12:33:26;22.40;43.40
21335;DHT22;10826;52.536;13.432;2022-10-16T12:35:55;22.40;43.30
21335;DHT22;10826;52.536;13.432;2022-10-16T12:38:28;22.50;43.40
21335;DHT22;10826;52.536;13.432;2022-10-16T12:41:06;22.50;43.10
21335;DHT22;10826;52.536;13.432;2022-10-16T12:43:43;22.50;42.70
21335;DHT22;10826;52.536;13.432;2022-10-16T12:48:42;22.50;42.30
21335;DHT22;10826;52.536;13.432;2022-10-16T12:51:35;22.50;42.20
21335;DHT22;10826;52.536;13.432;2022-10-16T12:54:04;22.60;41.90
21335;DHT22;10826;52.536;13.432;2022-10-16T12:56:58;22.50;41.80
21335;DHT22;10826;52.536;13.432;2022-10-16T13:06:39;22.60;41.20
21335;DHT22;10826;52.536;13.432;2022-10-16T13:12:25;22.70;41.10
21335;DHT22;10826;52.536;13.432;2022-10-16T13:18:15;22.70;40.90
21335;DHT22;10826;52.536;13.432;2022-10-16T13:21:02;22.70;40.90
21335;DHT22;10826;52.536;13.432;2022-10-16T13:24:02;22.80;40.70
21335;DHT22;10826;52.536;13.432;2022-10-16T13:29:39;22.90;40.30
21335;DHT22;10826;52.536;13.432;2022-10-16T13:32:09;22.80;40.20
21335;DHT22;10826;52.536;13.432;2022-10-16T13:34:46;22.90;40.20
21335;DHT22;10826;52.536;13.432;2022-10-16T13:37:22;23.00;40.10
21335;DHT22;10826;52.536;13.432;2022-10-16T13:39:49;23.00;39.70
21335;DHT22;10826;52.536;13.432;2022-10-16T13:42:28;23.00;39.80
21335;DHT22;10826;52.536;13.432;2022-10-16T13:44:56;23.10;39.90
21335;DHT22;10826;52.536;13.432;2022-10-16T13:47:26;23.10;39.90
21335;DHT22;10826;52.536;13.432;2022-10-16T13:50:08;23.10;39.90
21335;DHT22;10826;52.536;13.432;2022-10-16T13:52:37;23.20;39.70
21335;DHT22;10826;52.536;13.432;2022-10-16T13:55:17;23.20;39.60
21335;DHT22;10826;52.536;13.432;2022-10-16T13:57:44;23.20;39.40
21335;DHT22;10826;52.536;13.432;2022-10-16T14:00:25;23.20;39.50
21335;DHT22;10826;52.536;13.432;2022-10-16T14:03:00;23.20;39.80
21335;DHT22;10826;52.536;13.432;2022-10-16T14:05:29;23.10;39.90
21335;DHT22;10826;52.536;13.432;2022-10-16T14:07:56;23.10;39.70
21335;DHT22;10826;52.536;13.432;2022-10-16T14:10:27;23.10;39.70
21335;DHT22;10826;52.536;13.432;2022-10-16T14:13:06;23.10;39.60
21335;DHT22;10826;52.536;13.432;2022-10-16T14:15:37;23.10;39.60
21335;DHT22;10826;52.536;13.432;2022-10-16T14:18:03;23.10;39.90
21335;DHT22;10826;52.536;13.432;2022-10-16T14:20:32;23.00;39.70
21335;DHT22;10826;52.536;13.432;2022-10-16T14:23:16;23.00;40.00
21335;DHT22;10826;52.536;13.432;2022-10-16T14:25:45;23.00;39.80
21335;DHT22;10826;52.536;13.432;2022-10-16T14:28:20;23.00;39.80
21335;DHT22;10826;52.536;13.432;2022-10-16T14:30:58;23.00;39.60
21335;DHT22;10826;52.536;13.432;2022-10-16T14:36:11;23.00;40.40
21335;DHT22;10826;52.536;13.432;2022-10-16T14:38:42;23.00;40.00
21335;DHT22;10826;52.536;13.432;2022-10-16T14:41:13;23.00;40.20
21335;DHT22;10826;52.536;13.432;2022-10-16T14:43:42;22.90;40.20
21335;DHT22;10826;52.536;13.432;2022-10-16T14:46:17;22.90;40.30
21335;DHT22;10826;52.536;13.432;2022-10-16T14:48:48;22.90;40.40
21335;DHT22;10826;52.536;13.432;2022-10-16T14:51:18;22.80;40.60
21335;DHT22;10826;52.536;13.432;2022-10-16T14:53:46;22.80;40.70
21335;DHT22;10826;52.536;13.432;2022-10-16T14:56:23;22.80;40.70
21335;DHT22;10826;52.536;13.432;2022-10-16T14:58:51;22.80;40.90
21335;DHT22;10826;52.536;13.432;2022-10-16T15:01:18;22.70;41.20
21335;DHT22;10826;52.536;13.432;2022-10-16T15:03:44;22.70;41.20
21335;DHT22;10826;52.536;13.432;2022-10-16T15:06:11;22.70;41.10
21335;DHT22;10826;52.536;13.432;2022-10-16T15:08:39;22.70;41.20
21335;DHT22;10826;52.536;13.432;2022-10-16T15:11:11;22.70;41.10
21335;DHT22;10826;52.536;13.432;2022-10-16T15:13:39;22.70;41.40
21335;DHT22;10826;52.536;13.432;2022-10-16T15:16:07;22.70;41.30
21335;DHT22;10826;52.536;13.432;2022-10-16T15:18:36;22.60;41.20
21335;DHT22;10826;52.536;13.432;2022-10-16T15:21:02;22.50;42.00
21335;DHT22;10826;52.536;13.432;2022-10-16T15:23:27;22.50;41.20
21335;DHT22;10826;52.536;13.432;2022-10-16T15:25:55;22.50;41.10
21335;DHT22;10826;52.536;13.432;2022-10-16T15:28:23;22.50;41.10
21335;DHT22;10826;52.536;13.432;2022-10-16T15:30:55;22.40;41.00
21335;DHT22;10826;52.536;13.432;2022-10-16T15:33:27;22.40;40.80
21335;DHT22;10826;52.536;13.432;2022-10-16T15:35:58;22.30;40.70
21335;DHT22;10826;52.536;13.432;2022-10-16T15:38:24;22.30;40.70
21335;DHT22;10826;52.536;13.432;2022-10-16T15:40:52;22.20;40.50
21335;DHT22;10826;52.536;13.432;2022-10-16T15:43:18;22.20;40.50
21335;DHT22;10826;52.536;13.432;2022-10-16T15:45:58;22.20;40.60
21335;DHT22;10826;52.536;13.432;2022-10-16T15:48:27;22.20;40.50
21335;DHT22;10826;52.536;13.432;2022-10-16T15:50:54;22.10;40.50
21335;DHT22;10826;52.536;13.432;2022-10-16T15:53:20;22.00;40.40
21335;DHT22;10826;52.536;13.432;2022-10-16T15:55:46;22.00;40.50
21335;DHT22;10826;52.536;13.432;2022-10-16T15:58:12;22.00;40.50
21335;DHT22;10826;52.536;13.432;2022-10-16T16:00:39;21.90;40.60
21335;DHT22;10826;52.536;13.432;2022-10-16T16:03:05;21.90;40.70
21335;DHT22;10826;52.536;13.432;2022-10-16T16:05:31;21.90;40.70
21335;DHT22;10826;52.536;13.432;2022-10-16T16:07:58;21.80;40.50
21335;DHT22;10826;52.536;13.432;2022-10-16T16:10:24;21.80;40.70
21335;DHT22;10826;52.536;13.432;2022-10-16T16:12:50;21.70;40.80
21335;DHT22;10826;52.536;13.432;2022-10-16T16:15:21;21.70;40.80
21335;DHT22;10826;52.536;13.432;2022-10-16T16:17:48;21.60;40.90
21335;DHT22;10826;52.536;13.432;2022-10-16T16:20:14;21.60;41.00
21335;DHT22;10826;52.536;13.432;2022-10-16T16:22:41;21.50;41.10
21335;DHT22;10826;52.536;13.432;2022-10-16T16:25:08;21.50;41.20
21335;DHT22;10826;52.536;13.432;2022-10-16T16:27:34;21.40;41.20
21335;DHT22;10826;52.536;13.432;2022-10-16T16:30:01;21.40;41.40
21335;DHT22;10826;52.536;13.432;2022-10-16T16:32:29;21.40;41.60
21335;DHT22;10826;52.536;13.432;2022-10-16T16:34:55;21.40;41.60
21335;DHT22;10826;52.536;13.432;2022-10-16T16:37:21;21.30;41.70
21335;DHT22;10826;52.536;13.432;2022-10-16T16:39:47;21.20;41.60
21335;DHT22;10826;52.536;13.432;2022-10-16T16:42:13;21.20;41.60
21335;DHT22;10826;52.536;13.432;2022-10-16T16:44:39;21.20;42.50
21335;DHT22;10826;52.536;13.432;2022-10-16T16:47:05;21.10;41.80
21335;DHT22;10826;52.536;13.432;2022-10-16T16:49:31;21.10;41.90
21335;DHT22;10826;52.536;13.432;2022-10-16T16:51:58;21.10;42.00
21335;DHT22;10826;52.536;13.432;2022-10-16T16:54:24;21.00;42.00
21335;DHT22;10826;52.536;13.432;2022-10-16T16:56:50;21.00;42.00
21335;DHT22;10826;52.536;13.432;2022-10-16T16:59:19;21.00;42.00
21335;DHT22;10826;52.536;13.432;2022-10-16T17:01:47;20.90;42.20
21335;DHT22;10826;52.536;13.432;2022-10-16T17:04:14;20.80;42.10
21335;DHT22;10826;52.536;13.432;2022-10-16T17:06:56;20.80;42.20
21335;DHT22;10826;52.536;13.432;2022-10-16T17:09:25;20.90;42.50
21335;DHT22;10826;52.536;13.432;2022-10-16T17:11:51;20.80;42.40
21335;DHT22;10826;52.536;13.432;2022-10-16T17:14:17;20.70;42.50
21335;DHT22;10826;52.536;13.432;2022-10-16T17:16:43;20.70;42.50
21335;DHT22;10826;52.536;13.432;2022-10-16T17:19:13;20.70;42.60
21335;DHT22;10826;52.536;13.432;2022-10-16T17:21:41;20.60;42.60
21335;DHT22;10826;52.536;13.432;2022-10-16T17:24:08;20.60;42.80